createdAt,value
2022-09-22T00:02:06.502Z,100.00
2022-09-22T00:04:34.756Z,100.00
2022-09-22T00:07:02.728Z,100.00
2022-09-22T00:09:29.938Z,100.00
2022-09-22T00:11:57.020Z,100.00
2022-09-22T00:14:26.876Z,100.00
2022-09-22T00:17:01.464Z,100.00
2022-09-22T00:19:33.237Z,100.00
2022-09-22T00:22:00.384Z,100.00
2022-09-22T00:24:29.038Z,100.00
2022-09-22T00:26:58.650Z,100.00
2022-09-22T00:29:27.277Z,100.00
2022-09-22T00:31:56.279Z,100.00
2022-09-22T00:34:25.427Z,100.00
2022-09-22T00:36:58.521Z,100.00
2022-09-22T00:39:27.921Z,100.00
2022-09-22T00:41:55.227Z,100.00
2022-09-22T00:44:32.809Z,100.00
2022-09-22T00:47:18.830Z,100.00
2022-09-22T00:50:15.737Z,100.00
2022-09-22T00:52:50.713Z,100.00
2022-09-22T00:55:29.235Z,100.00
2022-09-22T00:58:00.149Z,100.00
2022-09-22T01:00:28.279Z,100.00
2022-09-22T01:02:58.636Z,100.00
2022-09-22T01:05:29.308Z,100.00
2022-09-22T01:07:57.561Z,100.00
2022-09-22T01:10:26.709Z,100.00
2022-09-22T01:13:10.122Z,100.00
2022-09-22T01:16:03.556Z,100.00
2022-09-22T01:18:53.763Z,100.00
2022-09-22T01:21:53.730Z,100.00
2022-09-22T01:24:47.931Z,100.00
2022-09-22T01:27:20.815Z,100.00
2022-09-22T01:30:12.175Z,100.00
2022-09-22T01:32:48.048Z,100.00
2022-09-22T01:35:34.576Z,100.00
2022-09-22T01:38:22.279Z,100.00
2022-09-22T01:41:00.501Z,100.00
2022-09-22T01:43:48.535Z,100.00
2022-09-22T01:46:41.389Z,100.00
2022-09-22T01:49:15.980Z,100.00
2022-09-22T01:51:53.802Z,100.00
2022-09-22T01:54:46.217Z,100.00
2022-09-22T01:57:20.483Z,100.00
2022-09-22T01:59:55.609Z,100.00
2022-09-22T02:02:57.463Z,100.00
2022-09-22T02:05:51.299Z,100.00
2022-09-22T02:08:49.947Z,100.00
2022-09-22T02:11:23.713Z,100.00
2022-09-22T02:13:51.601Z,100.00
2022-09-22T02:16:22.615Z,100.00
2022-09-22T02:19:17.064Z,100.00
2022-09-22T02:21:48.412Z,100.00
2022-09-22T02:24:34.256Z,100.00
2022-09-22T02:27:10.733Z,100.00
2022-09-22T02:29:45.921Z,100.00
2022-09-22T02:32:17.253Z,100.00
2022-09-22T02:34:48.017Z,100.00
2022-09-22T02:37:23.912Z,100.00
2022-09-22T02:40:29.104Z,100.00
2022-09-22T02:43:08.211Z,100.00
2022-09-22T02:45:48.232Z,100.00
2022-09-22T02:48:29.355Z,100.00
2022-09-22T02:50:57.587Z,100.00
2022-09-22T02:53:25.620Z,100.00
2022-09-22T02:55:52.800Z,100.00
2022-09-22T02:58:23.842Z,100.00
2022-09-22T03:00:51.893Z,100.00
2022-09-22T03:03:19.899Z,100.00
2022-09-22T03:05:47.992Z,100.00
2022-09-22T03:08:26.414Z,100.00
2022-09-22T03:10:54.629Z,100.00
2022-09-22T03:13:29.814Z,100.00
2022-09-22T03:15:58.845Z,100.00
2022-09-22T03:18:27.890Z,100.00
2022-09-22T03:20:56.040Z,100.00
2022-09-22T03:23:27.422Z,100.00
2022-09-22T03:26:03.866Z,100.00
2022-09-22T03:28:32.950Z,100.00
2022-09-22T03:31:06.264Z,100.00
2022-09-22T03:33:33.336Z,100.00
2022-09-22T03:36:00.235Z,100.00
2022-09-22T03:38:27.291Z,100.00
2022-09-22T03:40:55.369Z,100.00
2022-09-22T03:43:24.913Z,100.00
2022-09-22T03:46:08.498Z,100.00
2022-09-22T03:48:35.615Z,100.00
2022-09-22T03:51:04.738Z,100.00
2022-09-22T03:53:32.223Z,100.00
2022-09-22T03:56:11.752Z,100.00
2022-09-22T03:58:41.283Z,100.00
2022-09-22T04:01:11.511Z,100.00
2022-09-22T04:04:07.417Z,100.00
2022-09-22T04:06:37.071Z,100.00
2022-09-22T04:09:06.750Z,100.00
2022-09-22T04:11:36.606Z,100.00
2022-09-22T04:14:05.132Z,100.00
2022-09-22T04:16:32.240Z,100.00
2022-09-22T04:18:59.478Z,100.00
2022-09-22T04:21:30.854Z,100.00
2022-09-22T04:23:58.035Z,100.00
2022-09-22T04:26:25.083Z,100.00
2022-09-22T04:28:53.127Z,100.00
2022-09-22T04:31:23.215Z,100.00
2022-09-22T04:33:50.263Z,100.00
2022-09-22T04:36:17.449Z,100.00
2022-09-22T04:38:45.593Z,100.00
2022-09-22T04:41:12.654Z,100.00
2022-09-22T04:43:54.805Z,100.00
2022-09-22T04:46:26.824Z,100.00
2022-09-22T04:48:54.776Z,100.00
2022-09-22T04:51:22.000Z,100.00
2022-09-22T04:53:50.961Z,100.00
2022-09-22T04:56:19.998Z,100.00
2022-09-22T04:58:51.001Z,100.00
2022-09-22T05:01:18.034Z,100.00
2022-09-22T05:03:45.164Z,100.00
2022-09-22T05:06:17.966Z,100.00
2022-09-22T05:08:45.037Z,100.00
2022-09-22T05:11:12.455Z,100.00
2022-09-22T05:13:49.543Z,100.00
2022-09-22T05:16:17.559Z,100.00
2022-09-22T05:18:46.756Z,100.00
2022-09-22T05:21:14.910Z,100.00
2022-09-22T05:23:42.090Z,100.00
2022-09-22T05:26:10.056Z,100.00
2022-09-22T05:28:38.152Z,100.00
2022-09-22T05:31:14.498Z,100.00
2022-09-22T05:33:42.638Z,100.00
2022-09-22T05:36:09.621Z,100.00
2022-09-22T05:38:37.735Z,100.00
2022-09-22T05:41:08.805Z,100.00
2022-09-22T05:43:35.854Z,100.00
2022-09-22T05:46:03.914Z,100.00
2022-09-22T05:48:37.206Z,100.00
2022-09-22T05:51:10.009Z,100.00
2022-09-22T05:53:38.250Z,100.00
2022-09-22T05:56:06.420Z,100.00
2022-09-22T05:58:33.402Z,100.00
2022-09-22T06:01:01.407Z,100.00
2022-09-22T06:03:31.542Z,100.00
2022-09-22T06:05:58.712Z,100.00
2022-09-22T06:08:26.929Z,100.00
2022-09-22T06:10:54.933Z,100.00
2022-09-22T06:13:21.986Z,100.00
2022-09-22T06:15:49.414Z,100.00
2022-09-22T06:18:23.426Z,100.00
2022-09-22T06:20:51.846Z,100.00
2022-09-22T06:23:19.349Z,100.00
2022-09-22T06:25:46.334Z,100.00
2022-09-22T06:28:16.625Z,100.00
2022-09-22T06:30:52.154Z,100.00
2022-09-22T06:33:19.215Z,100.00
2022-09-22T06:35:46.474Z,100.00
2022-09-22T06:38:16.570Z,100.00
2022-09-22T06:40:45.183Z,100.00
2022-09-22T06:43:23.400Z,100.00
2022-09-22T06:45:53.261Z,100.00
2022-09-22T06:48:24.171Z,100.00
2022-09-22T06:50:53.968Z,100.00
2022-09-22T06:53:24.573Z,100.00
2022-09-22T06:55:54.477Z,100.00
2022-09-22T06:58:23.128Z,100.00
2022-09-22T07:00:53.997Z,100.00
2022-09-22T07:03:26.577Z,100.00
2022-09-22T07:06:01.242Z,100.00
2022-09-22T07:08:30.504Z,100.00
2022-09-22T07:11:04.595Z,100.00
2022-09-22T07:13:33.313Z,100.00
2022-09-22T07:16:03.523Z,100.00
2022-09-22T07:18:32.705Z,100.00
2022-09-22T07:21:08.527Z,100.00
2022-09-22T07:23:37.618Z,100.00
2022-09-22T07:26:08.140Z,100.00
2022-09-22T07:28:41.193Z,98.47
2022-09-22T07:31:15.002Z,97.86
2022-09-22T07:33:44.323Z,98.54
2022-09-22T07:36:14.591Z,99.63
2022-09-22T07:38:44.565Z,98.32
2022-09-22T07:41:15.016Z,97.46
2022-09-22T07:43:43.151Z,97.87
2022-09-22T07:46:13.468Z,97.60
2022-09-22T07:48:50.973Z,97.61
2022-09-22T07:51:22.537Z,95.70
2022-09-22T07:54:09.830Z,94.95
2022-09-22T07:56:43.490Z,94.61
2022-09-22T07:59:13.990Z,95.00
2022-09-22T08:01:52.574Z,95.94
2022-09-22T08:04:32.184Z,95.62
2022-09-22T08:06:59.222Z,94.63
2022-09-22T08:09:29.947Z,93.63
2022-09-22T08:11:57.355Z,94.72
2022-09-22T08:14:24.529Z,94.81
2022-09-22T08:16:53.896Z,95.94
2022-09-22T08:19:23.934Z,96.16
2022-09-22T08:21:54.627Z,94.26
2022-09-22T08:24:23.316Z,92.49
2022-09-22T08:26:56.175Z,91.00
2022-09-22T08:29:24.743Z,91.53
2022-09-22T08:31:52.019Z,90.71
2022-09-22T08:34:19.109Z,89.01
2022-09-22T08:36:52.460Z,88.79
2022-09-22T08:39:19.760Z,89.35
2022-09-22T08:42:04.450Z,88.18
2022-09-22T08:44:46.810Z,89.10
2022-09-22T08:47:40.421Z,86.96
2022-09-22T08:50:48.761Z,84.16
2022-09-22T08:53:23.152Z,84.42
2022-09-22T08:56:05.508Z,84.68
2022-09-22T08:58:43.451Z,83.76
2022-09-22T09:01:39.668Z,84.74
2022-09-22T09:04:35.634Z,85.72
2022-09-22T09:07:31.683Z,85.41
2022-09-22T09:10:35.440Z,84.71
2022-09-22T09:13:25.069Z,84.75
2022-09-22T09:16:11.683Z,84.04
2022-09-22T09:18:44.668Z,80.58
2022-09-22T09:21:15.290Z,78.09
2022-09-22T09:26:39.534Z,76.62
2022-09-22T09:29:21.276Z,75.68
2022-09-22T09:31:52.962Z,75.83
2022-09-22T09:34:29.237Z,75.66
2022-09-22T09:37:08.220Z,71.46
2022-09-22T09:39:43.300Z,66.94
2022-09-22T09:42:22.163Z,66.77
2022-09-22T09:45:02.816Z,68.57
2022-09-22T09:48:00.141Z,70.13
2022-09-22T09:50:32.607Z,70.49
2022-09-22T09:53:28.513Z,66.24
2022-09-22T09:56:01.805Z,64.29
2022-09-22T09:58:47.043Z,62.14
2022-09-22T10:01:24.081Z,64.72
2022-09-22T10:03:55.163Z,65.82
2022-09-22T10:06:28.932Z,63.05
2022-09-22T10:09:01.053Z,59.19
2022-09-22T10:11:31.362Z,59.87
2022-09-22T10:13:58.946Z,54.35
2022-09-22T10:16:36.466Z,54.91
2022-09-22T10:19:27.951Z,56.57
2022-09-22T10:22:16.137Z,59.63
2022-09-22T10:25:04.162Z,55.20
2022-09-22T10:27:41.435Z,55.67
2022-09-22T10:30:22.093Z,56.31
2022-09-22T10:33:11.637Z,54.38
2022-09-22T10:35:40.773Z,53.88
2022-09-22T10:38:25.209Z,50.91
2022-09-22T10:41:14.872Z,50.16
2022-09-22T10:44:37.588Z,51.55
2022-09-22T10:47:13.844Z,50.75
2022-09-22T10:50:05.105Z,46.80
2022-09-22T10:52:59.155Z,48.29
2022-09-22T10:55:46.674Z,46.72
2022-09-22T10:58:56.978Z,46.23
2022-09-22T11:01:31.963Z,45.31
2022-09-22T11:04:23.317Z,45.54
2022-09-22T11:07:49.372Z,43.06
2022-09-22T11:10:42.768Z,42.92
2022-09-22T11:13:13.337Z,43.95
2022-09-22T11:15:45.409Z,44.94
2022-09-22T11:18:33.623Z,47.72
2022-09-22T11:21:27.762Z,47.68
2022-09-22T11:24:30.890Z,45.45
2022-09-22T11:27:01.815Z,45.82
2022-09-22T11:29:42.095Z,45.64
2022-09-22T11:32:50.336Z,46.54
2022-09-22T11:35:44.928Z,47.94
2022-09-22T11:38:42.468Z,49.23
2022-09-22T11:41:29.876Z,45.04
2022-09-22T11:44:36.587Z,45.07
2022-09-22T11:47:07.568Z,46.44
2022-09-22T11:50:30.777Z,48.17
2022-09-22T11:53:06.078Z,45.74
2022-09-22T11:56:04.941Z,44.05
2022-09-22T11:58:33.842Z,46.11
2022-09-22T12:01:12.325Z,44.98
2022-09-22T12:03:45.155Z,45.19
2022-09-22T12:06:18.175Z,45.52
2022-09-22T12:08:58.495Z,45.04
2022-09-22T12:11:29.748Z,44.44
2022-09-22T12:14:00.346Z,43.05
2022-09-22T12:16:52.749Z,43.75
2022-09-22T12:19:44.562Z,42.26
2022-09-22T12:22:18.718Z,42.07
2022-09-22T12:24:47.509Z,40.86
2022-09-22T12:27:26.755Z,39.56
2022-09-22T12:30:01.172Z,42.35
2022-09-22T12:32:43.346Z,43.00
2022-09-22T12:35:27.443Z,41.45
2022-09-22T12:38:02.325Z,40.91
2022-09-22T12:40:37.482Z,39.49
2022-09-22T12:43:06.208Z,39.21
2022-09-22T12:45:41.102Z,39.07
2022-09-22T12:48:35.820Z,40.27
2022-09-22T12:51:31.663Z,41.82
2022-09-22T12:54:23.693Z,43.21
2022-09-22T12:57:05.074Z,41.72
2022-09-22T12:59:40.373Z,41.32
2022-09-22T13:02:16.366Z,41.17
2022-09-22T13:04:49.280Z,40.05
2022-09-22T13:07:37.892Z,42.67
2022-09-22T13:10:25.274Z,44.29
2022-09-22T13:13:07.171Z,45.39
2022-09-22T13:15:49.719Z,44.57
2022-09-22T13:18:45.811Z,48.06
2022-09-22T13:21:14.808Z,48.11
2022-09-22T13:24:03.225Z,49.98
2022-09-22T13:27:02.872Z,51.50
2022-09-22T13:29:31.301Z,55.58
2022-09-22T13:32:18.470Z,59.29
2022-09-22T13:34:49.608Z,60.01
2022-09-22T13:37:23.774Z,62.08
2022-09-22T13:39:55.131Z,63.93
2022-09-22T13:42:31.592Z,62.56
2022-09-22T13:45:13.967Z,62.41
2022-09-22T13:47:43.148Z,63.34
2022-09-22T13:50:22.082Z,62.96
2022-09-22T13:52:53.065Z,62.80
2022-09-22T13:55:36.419Z,62.24
2022-09-22T13:58:06.423Z,62.43
2022-09-22T14:01:08.762Z,63.94
2022-09-22T14:03:38.611Z,62.73
2022-09-22T14:06:12.346Z,62.13
2022-09-22T14:08:40.727Z,63.06
2022-09-22T14:11:18.837Z,64.42
2022-09-22T14:14:07.266Z,64.97
2022-09-22T14:16:58.041Z,64.81
2022-09-22T14:19:36.392Z,64.30
2022-09-22T14:22:24.081Z,64.30
2022-09-22T14:25:00.920Z,63.92
2022-09-22T14:27:50.548Z,63.86
2022-09-22T14:30:20.406Z,64.10
2022-09-22T14:32:50.650Z,63.81
2022-09-22T14:35:31.992Z,63.55
2022-09-22T14:38:10.606Z,62.85
2022-09-22T14:41:04.662Z,62.79
2022-09-22T14:43:39.339Z,61.12
2022-09-22T14:46:31.378Z,59.77
2022-09-22T14:48:58.571Z,57.74
2022-09-22T14:51:27.754Z,56.13
2022-09-22T14:54:01.838Z,55.63
2022-09-22T14:56:36.898Z,53.60
2022-09-22T14:59:28.600Z,50.44
2022-09-22T15:02:15.760Z,49.24
2022-09-22T15:04:49.729Z,48.08
2022-09-22T15:07:29.427Z,47.43
2022-09-22T15:10:02.779Z,48.34
2022-09-22T15:12:47.362Z,47.15
2022-09-22T15:15:18.214Z,47.50
2022-09-22T15:18:06.760Z,48.86
2022-09-22T15:20:59.943Z,51.38
2022-09-22T15:23:39.693Z,51.91
2022-09-22T15:26:24.870Z,53.68
2022-09-22T15:28:54.558Z,55.75
2022-09-22T15:31:27.098Z,57.25
2022-09-22T15:34:03.213Z,58.39
2022-09-22T15:36:33.685Z,58.52
2022-09-22T15:39:12.172Z,58.00
2022-09-22T15:41:39.328Z,59.25
2022-09-22T15:44:09.087Z,59.18
2022-09-22T15:46:39.297Z,58.74
2022-09-22T15:49:21.086Z,59.67
2022-09-22T15:51:51.781Z,59.83
2022-09-22T15:54:21.640Z,60.14
2022-09-22T15:57:01.023Z,60.85
2022-09-22T15:59:35.358Z,60.77
2022-09-22T16:02:02.794Z,60.42
2022-09-22T16:04:34.390Z,59.22
2022-09-22T16:07:08.624Z,57.46
2022-09-22T16:09:37.429Z,57.79
2022-09-22T16:12:08.426Z,57.81
2022-09-22T16:14:36.942Z,58.84
2022-09-22T16:17:07.951Z,60.27
2022-09-22T16:19:35.941Z,61.02
2022-09-22T16:22:15.149Z,60.74
2022-09-22T16:24:44.490Z,60.11
2022-09-22T16:27:12.622Z,59.33
2022-09-22T16:29:48.158Z,59.54
2022-09-22T16:32:24.828Z,58.95
2022-09-22T16:34:54.061Z,58.60
2022-09-22T16:37:21.557Z,58.52
2022-09-22T16:39:49.799Z,59.99
2022-09-22T16:42:23.413Z,61.47
2022-09-22T16:44:54.034Z,62.68
2022-09-22T16:47:23.003Z,64.23
2022-09-22T16:49:54.533Z,65.72
2022-09-22T16:52:22.775Z,66.91
2022-09-22T16:54:51.996Z,69.35
2022-09-22T16:57:22.153Z,71.41
2022-09-22T16:59:50.642Z,72.97
2022-09-22T17:02:17.738Z,74.42
2022-09-22T17:04:56.951Z,75.93
2022-09-22T17:07:24.583Z,77.82
2022-09-22T17:09:58.646Z,78.54
2022-09-22T17:12:29.439Z,79.46
2022-09-22T17:15:01.515Z,80.72
2022-09-22T17:17:28.666Z,81.68
2022-09-22T17:19:55.728Z,82.88
2022-09-22T17:22:31.965Z,84.32
2022-09-22T17:25:29.412Z,85.07
2022-09-22T17:27:57.056Z,85.13
2022-09-22T17:30:33.289Z,85.94
2022-09-22T17:33:02.546Z,86.62
2022-09-22T17:35:30.587Z,88.87
2022-09-22T17:37:58.750Z,89.54
2022-09-22T17:40:51.714Z,90.69
2022-09-22T17:43:23.267Z,91.57
2022-09-22T17:45:54.309Z,91.83
2022-09-22T17:48:42.922Z,92.58
2022-09-22T17:51:50.303Z,93.00
2022-09-22T17:54:41.669Z,92.19
2022-09-22T17:57:13.481Z,91.56
2022-09-22T17:59:41.819Z,90.34
2022-09-22T18:02:36.802Z,90.05
2022-09-22T18:05:07.120Z,90.30
2022-09-22T18:07:36.920Z,90.82
2022-09-22T18:10:12.583Z,91.55
2022-09-22T18:12:41.587Z,91.85
2022-09-22T18:15:17.661Z,92.07
2022-09-22T18:17:46.719Z,93.68
2022-09-22T18:20:18.398Z,95.53
2022-09-22T18:23:10.576Z,95.96
2022-09-22T18:25:38.719Z,95.59
2022-09-22T18:28:16.683Z,94.34
2022-09-22T18:30:45.796Z,94.09
2022-09-22T18:33:37.013Z,93.68
2022-09-22T18:36:05.517Z,93.28
2022-09-22T18:38:49.226Z,93.29
2022-09-22T18:41:19.680Z,93.78
2022-09-22T18:43:49.501Z,94.23
2022-09-22T18:46:20.243Z,94.46
2022-09-22T18:48:54.174Z,95.15
2022-09-22T18:51:29.801Z,95.35
2022-09-22T18:54:01.108Z,95.48
2022-09-22T18:56:30.671Z,95.88
2022-09-22T18:58:57.737Z,95.82
2022-09-22T19:01:35.231Z,96.73
2022-09-22T19:04:03.936Z,97.76
2022-09-22T19:06:55.326Z,97.45
2022-09-22T19:09:28.295Z,98.92
2022-09-22T19:12:00.097Z,99.14
2022-09-22T19:14:39.415Z,98.75
2022-09-22T19:17:09.609Z,98.93
2022-09-22T19:19:38.133Z,99.95
2022-09-22T19:22:10.212Z,98.92
2022-09-22T19:24:46.351Z,98.91
2022-09-22T19:27:16.533Z,99.96
2022-09-22T19:29:51.114Z,100.00
2022-09-22T19:32:19.524Z,100.00
2022-09-22T19:34:46.784Z,100.00
2022-09-22T19:37:14.197Z,100.00
2022-09-22T19:39:42.878Z,100.00
2022-09-22T19:42:11.009Z,100.00
2022-09-22T19:44:41.172Z,100.00
2022-09-22T19:47:21.478Z,100.00
2022-09-22T19:49:55.232Z,100.00
2022-09-22T19:52:22.650Z,100.00
2022-09-22T19:54:50.916Z,100.00
2022-09-22T19:57:25.148Z,100.00
2022-09-22T19:59:53.420Z,100.00
2022-09-22T20:02:21.199Z,100.00
2022-09-22T20:04:56.103Z,100.00
2022-09-22T20:07:27.055Z,100.00
2022-09-22T20:09:56.793Z,100.00
2022-09-22T20:12:30.068Z,100.00
2022-09-22T20:14:58.131Z,100.00
2022-09-22T20:17:26.153Z,100.00
2022-09-22T20:19:59.117Z,100.00
2022-09-22T20:22:30.026Z,100.00
2022-09-22T20:25:01.699Z,100.00
2022-09-22T20:27:51.150Z,100.00
2022-09-22T20:30:26.149Z,100.00
2022-09-22T20:33:05.654Z,100.00
2022-09-22T20:35:35.918Z,100.00
2022-09-22T20:38:05.113Z,100.00
2022-09-22T20:40:35.232Z,100.00
2022-09-22T20:43:12.708Z,100.00
2022-09-22T20:45:49.166Z,100.00
2022-09-22T20:48:18.806Z,100.00
2022-09-22T20:50:56.083Z,100.00
2022-09-22T20:53:23.108Z,100.00
2022-09-22T20:56:10.948Z,100.00
2022-09-22T20:58:43.595Z,100.00
2022-09-22T21:01:13.177Z,100.00
2022-09-22T21:03:41.926Z,100.00
2022-09-22T21:06:22.758Z,100.00
2022-09-22T21:09:08.240Z,100.00
2022-09-22T21:11:37.632Z,100.00
2022-09-22T21:14:06.886Z,100.00
2022-09-22T21:16:36.687Z,100.00
2022-09-22T21:19:16.836Z,100.00
2022-09-22T21:21:52.034Z,100.00
2022-09-22T21:24:20.059Z,100.00
2022-09-22T21:26:47.255Z,100.00
2022-09-22T21:29:14.278Z,100.00
2022-09-22T21:31:41.666Z,100.00
2022-09-22T21:34:20.630Z,100.00
2022-09-22T21:36:47.765Z,100.00
2022-09-22T21:39:15.866Z,100.00
2022-09-22T21:41:50.752Z,100.00
2022-09-22T21:44:24.874Z,100.00
2022-09-22T21:46:57.036Z,100.00
2022-09-22T21:49:24.688Z,100.00
2022-09-22T21:51:51.760Z,100.00
2022-09-22T21:54:20.304Z,100.00
2022-09-22T21:56:50.698Z,100.00
2022-09-22T21:59:22.139Z,100.00
2022-09-22T22:01:51.204Z,100.00
2022-09-22T22:04:18.501Z,100.00
2022-09-22T22:06:46.982Z,100.00
2022-09-22T22:09:27.561Z,100.00
2022-09-22T22:11:59.625Z,100.00
2022-09-22T22:14:32.287Z,100.00
2022-09-22T22:17:04.488Z,100.00
2022-09-22T22:19:34.697Z,100.00
2022-09-22T22:22:05.633Z,100.00
2022-09-22T22:24:42.631Z,100.00
2022-09-22T22:27:27.217Z,100.00
2022-09-22T22:29:56.331Z,100.00
2022-09-22T22:32:25.479Z,100.00
2022-09-22T22:34:53.432Z,100.00
2022-09-22T22:37:22.418Z,100.00
2022-09-22T22:39:49.443Z,100.00
2022-09-22T22:42:18.400Z,100.00
2022-09-22T22:44:46.542Z,100.00
2022-09-22T22:47:19.536Z,100.00
2022-09-22T22:50:06.608Z,100.00
2022-09-22T22:52:34.576Z,100.00
2022-09-22T22:55:07.401Z,100.00
2022-09-22T22:57:35.410Z,100.00
2022-09-22T23:00:02.828Z,100.00
2022-09-22T23:02:30.641Z,100.00
2022-09-22T23:05:09.256Z,100.00
2022-09-22T23:07:48.292Z,100.00
2022-09-22T23:10:17.397Z,100.00
2022-09-22T23:12:47.003Z,100.00
2022-09-22T23:15:18.253Z,100.00
2022-09-22T23:17:59.388Z,100.00
2022-09-22T23:20:30.407Z,100.00
2022-09-22T23:22:58.540Z,100.00
2022-09-22T23:25:26.730Z,100.00
2022-09-22T23:28:02.216Z,100.00
2022-09-22T23:30:34.807Z,100.00
2022-09-22T23:33:02.992Z,100.00
2022-09-22T23:35:30.934Z,100.00
2022-09-22T23:37:58.099Z,100.00
2022-09-22T23:40:25.365Z,100.00
2022-09-22T23:42:52.839Z,100.00
2022-09-22T23:45:21.785Z,100.00
2022-09-22T23:47:52.876Z,100.00
2022-09-22T23:50:30.597Z,100.00
2022-09-22T23:52:58.856Z,100.00
2022-09-22T23:55:25.940Z,100.00
2022-09-22T23:57:52.970Z,100.00
